createdAt,value
2018-12-20T00:03:40.553Z,9.23
2018-12-20T00:07:43.785Z,9.60
2018-12-20T00:11:46.830Z,10.27
2018-12-20T00:15:49.859Z,11.07
2018-12-20T00:19:53.054Z,12.97
2018-12-20T00:23:56.008Z,11.00
2018-12-20T00:27:59.257Z,11.03
2018-12-20T00:32:02.510Z,9.97
2018-12-20T00:36:05.615Z,11.13
2018-12-20T00:40:08.879Z,13.03
2018-12-20T00:44:11.939Z,11.53
2018-12-20T00:48:15.222Z,11.20
2018-12-20T00:52:18.656Z,12.50
2018-12-20T00:56:21.699Z,10.07
2018-12-20T01:00:24.825Z,11.63
2018-12-20T01:04:27.819Z,14.47
2018-12-20T01:08:30.766Z,12.43
2018-12-20T01:12:33.717Z,12.40
2018-12-20T01:16:36.637Z,12.00
2018-12-20T01:20:39.609Z,13.70
2018-12-20T01:24:42.572Z,12.23
2018-12-20T01:28:49.585Z,13.70
2018-12-20T01:32:52.610Z,15.30
2018-12-20T01:36:55.771Z,11.63
2018-12-20T01:40:59.027Z,12.70
2018-12-20T01:45:02.322Z,15.83
2018-12-20T01:49:05.502Z,13.17
2018-12-20T01:53:08.481Z,12.80
2018-12-20T01:57:11.546Z,11.90
2018-12-20T02:01:14.575Z,16.83
2018-12-20T02:05:17.490Z,12.90
2018-12-20T02:09:20.616Z,12.73
2018-12-20T02:13:23.786Z,12.27
2018-12-20T02:17:27.109Z,14.47
2018-12-20T02:21:30.297Z,14.40
2018-12-20T02:25:33.282Z,14.53
2018-12-20T02:29:36.401Z,13.47
2018-12-20T02:33:39.551Z,14.30
2018-12-20T02:37:42.523Z,12.00
2018-12-20T02:41:45.535Z,12.73
2018-12-20T02:45:48.748Z,13.40
2018-12-20T02:49:51.641Z,13.03
2018-12-20T02:53:54.767Z,20.87
2018-12-20T02:57:57.808Z,12.67
2018-12-20T03:02:01.033Z,12.70
2018-12-20T03:06:06.933Z,13.07
2018-12-20T03:10:10.315Z,12.97
2018-12-20T03:14:13.484Z,12.90
2018-12-20T03:18:16.731Z,11.77
2018-12-20T03:22:19.942Z,12.40
2018-12-20T03:26:23.341Z,18.23
2018-12-20T03:30:26.607Z,14.23
2018-12-20T03:34:29.860Z,13.73
2018-12-20T03:38:33.343Z,16.43
2018-12-20T03:42:36.301Z,11.83
2018-12-20T03:46:39.255Z,11.93
2018-12-20T03:50:42.313Z,12.03
2018-12-20T03:54:52.067Z,11.50
2018-12-20T03:58:55.995Z,11.60
2018-12-20T04:02:58.967Z,11.77
2018-12-20T04:07:02.036Z,12.13
2018-12-20T04:11:05.112Z,11.30
2018-12-20T04:15:08.593Z,10.97
2018-12-20T04:19:12.040Z,11.93
2018-12-20T04:23:16.959Z,9.43
2018-12-20T04:27:20.922Z,10.17
2018-12-20T04:31:24.186Z,13.13
2018-12-20T04:35:27.394Z,10.33
2018-12-20T04:39:31.376Z,10.30
2018-12-20T04:43:34.375Z,9.90
2018-12-20T04:47:37.358Z,9.73
2018-12-20T04:51:42.380Z,7.73
2018-12-20T04:55:49.175Z,9.60
2018-12-20T04:59:56.029Z,9.90
2018-12-20T05:03:59.937Z,9.53
2018-12-20T05:08:04.779Z,9.13
2018-12-20T05:12:07.969Z,9.10
2018-12-20T05:16:12.680Z,9.70
2018-12-20T05:20:16.982Z,9.00
2018-12-20T05:24:21.249Z,9.63
2018-12-20T05:28:24.287Z,9.20
2018-12-20T05:32:28.254Z,13.50
2018-12-20T05:36:31.529Z,8.93
2018-12-20T05:40:38.619Z,8.37
2018-12-20T05:44:49.231Z,8.17
2018-12-20T05:48:52.738Z,8.43
2018-12-20T05:52:56.609Z,7.63
2018-12-20T05:57:02.419Z,18.07
2018-12-20T06:01:08.401Z,9.07
2018-12-20T06:05:22.558Z,8.40
2018-12-20T06:09:25.641Z,9.23
2018-12-20T06:13:31.535Z,10.23
2018-12-20T06:17:36.454Z,8.33
2018-12-20T06:21:40.293Z,10.10
2018-12-20T06:25:43.309Z,10.00
2018-12-20T06:29:47.440Z,9.63
2018-12-20T06:33:51.252Z,8.60
2018-12-20T06:37:54.201Z,10.03
2018-12-20T06:41:57.207Z,9.63
2018-12-20T06:46:04.464Z,7.97
2018-12-20T06:50:12.206Z,8.73
2018-12-20T06:54:18.569Z,10.03
2018-12-20T06:58:21.629Z,10.30
2018-12-20T07:02:24.650Z,8.07
2018-12-20T07:06:30.122Z,8.17
2018-12-20T07:10:34.671Z,12.07
2018-12-20T07:14:38.146Z,8.37
2018-12-20T07:18:41.505Z,8.23
2018-12-20T07:22:48.315Z,7.57
2018-12-20T07:26:51.823Z,7.83
2018-12-20T07:30:54.910Z,9.17
2018-12-20T07:34:57.877Z,8.87
2018-12-20T07:39:08.335Z,12.57
2018-12-20T07:43:13.414Z,7.80
2018-12-20T07:47:16.429Z,8.20
2018-12-20T07:51:19.493Z,8.37
2018-12-20T07:55:22.700Z,9.97
2018-12-20T07:59:25.800Z,10.53
2018-12-20T08:03:31.992Z,10.90
2018-12-20T08:07:37.843Z,10.30
2018-12-20T08:11:41.545Z,10.20
2018-12-20T08:15:45.629Z,10.60
2018-12-20T08:19:49.395Z,10.70
2018-12-20T08:23:52.362Z,10.07
2018-12-20T08:27:55.613Z,10.30
2018-12-20T08:31:58.553Z,11.67
2018-12-20T08:36:01.523Z,12.93
2018-12-20T08:40:07.312Z,13.40
2018-12-20T08:44:11.378Z,10.93
2018-12-20T08:48:16.881Z,12.77
2018-12-20T08:52:19.962Z,13.57
2018-12-20T08:56:23.447Z,15.03
2018-12-20T09:00:26.421Z,14.50
2018-12-20T09:04:29.760Z,14.37
2018-12-20T09:08:32.737Z,13.60
2018-12-20T09:12:36.079Z,13.50
2018-12-20T09:16:39.196Z,13.70
2018-12-20T09:20:42.563Z,14.50
2018-12-20T09:24:45.519Z,14.20
2018-12-20T09:28:48.609Z,13.60
2018-12-20T09:32:53.325Z,13.83
2018-12-20T09:36:56.294Z,12.93
2018-12-20T09:41:00.295Z,12.23
2018-12-20T09:45:03.382Z,17.77
2018-12-20T09:49:06.414Z,14.70
2018-12-20T09:53:09.744Z,14.47
2018-12-20T09:57:12.793Z,14.50
2018-12-20T10:01:15.964Z,19.17
2018-12-20T10:05:18.914Z,16.80
2018-12-20T10:09:21.806Z,13.37
2018-12-20T10:13:24.802Z,14.07
2018-12-20T10:17:28.634Z,12.53
2018-12-20T10:21:31.834Z,12.57
2018-12-20T10:29:55.823Z,15.27
2018-12-20T10:33:58.895Z,12.40
2018-12-20T10:38:01.993Z,12.47
2018-12-20T10:42:04.918Z,13.10
2018-12-20T10:46:07.952Z,10.43
2018-12-20T10:50:11.058Z,10.97
2018-12-20T10:54:14.073Z,13.83
2018-12-20T10:58:17.033Z,12.60
2018-12-20T11:02:25.592Z,11.43
2018-12-20T11:06:34.104Z,15.00
2018-12-20T11:10:37.277Z,12.10
2018-12-20T11:14:40.240Z,12.70
2018-12-20T11:18:43.659Z,11.70
2018-12-20T11:22:46.696Z,14.50
2018-12-20T11:26:49.718Z,14.93
2018-12-20T11:30:52.634Z,12.70
2018-12-20T11:34:55.616Z,11.20
2018-12-20T11:38:58.664Z,11.77
2018-12-20T11:43:02.422Z,10.00
2018-12-20T11:47:08.769Z,15.57
2018-12-20T11:51:11.874Z,9.93
2018-12-20T11:55:15.121Z,10.50
2018-12-20T11:59:18.402Z,11.13
2018-12-20T12:03:21.631Z,10.03
2018-12-20T12:07:24.678Z,13.27
2018-12-20T12:11:27.702Z,10.43
2018-12-20T12:15:30.686Z,13.60
2018-12-20T12:28:59.791Z,10.90
2018-12-20T12:39:12.094Z,11.17
2018-12-20T13:16:32.769Z,11.30
2018-12-20T13:20:35.980Z,10.33
2018-12-20T13:24:40.276Z,9.63
2018-12-20T13:28:43.460Z,13.07
2018-12-20T13:32:46.452Z,11.10
2018-12-20T13:36:49.690Z,10.70
2018-12-20T13:40:52.606Z,9.40
2018-12-20T13:44:56.098Z,12.10
2018-12-20T13:48:59.079Z,10.07
2018-12-20T13:53:02.425Z,8.60
2018-12-20T13:57:05.677Z,10.03
2018-12-20T14:01:08.642Z,12.10
2018-12-20T14:05:12.383Z,9.90
2018-12-20T14:09:16.273Z,10.50
2018-12-20T14:13:19.271Z,11.13
2018-12-20T14:17:22.636Z,10.27
2018-12-20T14:21:25.966Z,9.70
2018-12-20T14:25:29.011Z,9.93
2018-12-20T14:29:33.570Z,9.30
2018-12-20T14:33:36.697Z,11.37
2018-12-20T14:37:39.573Z,6.67
2018-12-20T14:41:42.476Z,9.93
2018-12-20T14:45:45.762Z,10.23
2018-12-20T14:49:48.817Z,7.40
2018-12-20T14:53:52.012Z,7.60
2018-12-20T14:57:54.945Z,7.33
2018-12-20T15:01:57.830Z,4.70
2018-12-20T15:06:00.731Z,8.70
2018-12-20T15:10:05.470Z,8.93
2018-12-20T15:14:08.549Z,10.43
2018-12-20T15:18:11.511Z,9.30
2018-12-20T15:22:14.783Z,9.43
2018-12-20T15:26:17.885Z,8.57
2018-12-20T15:30:20.805Z,8.10
2018-12-20T15:34:24.935Z,9.27
2018-12-20T15:38:28.183Z,8.27
2018-12-20T15:42:31.457Z,11.13
2018-12-20T15:46:34.483Z,13.13
2018-12-20T15:50:37.662Z,9.60
2018-12-20T15:54:40.593Z,12.57
2018-12-20T15:58:43.800Z,11.63
2018-12-20T16:02:47.075Z,15.73
2018-12-20T16:06:50.185Z,12.70
2018-12-20T16:10:53.422Z,15.60
2018-12-20T16:14:56.705Z,14.33
2018-12-20T16:19:04.913Z,12.80
2018-12-20T16:23:04.499Z,11.63
2018-12-20T16:27:07.505Z,14.33
2018-12-20T16:31:10.402Z,13.30
2018-12-20T16:35:13.735Z,12.20
2018-12-20T16:39:16.762Z,12.50
2018-12-20T16:43:19.965Z,18.97
2018-12-20T16:47:23.206Z,14.20
2018-12-20T16:51:26.144Z,15.07
2018-12-20T16:55:29.329Z,18.13
2018-12-20T16:59:32.278Z,15.77
2018-12-20T17:03:35.181Z,17.60
2018-12-20T17:07:38.155Z,16.53
2018-12-20T17:11:41.362Z,17.70
2018-12-20T17:15:44.304Z,22.97
2018-12-20T17:19:47.210Z,18.77
2018-12-20T17:23:50.502Z,22.10
2018-12-20T17:27:53.410Z,22.60
2018-12-20T17:31:56.311Z,20.83
2018-12-20T17:35:59.513Z,20.00
2018-12-20T17:40:02.662Z,17.77
2018-12-20T17:44:05.815Z,18.63
2018-12-20T17:48:08.995Z,24.67
2018-12-20T17:52:12.503Z,23.03
2018-12-20T17:56:15.505Z,21.33
2018-12-20T18:00:18.621Z,25.73
2018-12-20T18:04:21.859Z,24.00
2018-12-20T18:08:24.774Z,24.67
2018-12-20T18:12:28.103Z,21.83
2018-12-20T18:16:31.155Z,23.87
2018-12-20T18:20:34.065Z,22.40
2018-12-20T18:24:37.237Z,22.00
2018-12-20T18:28:40.317Z,23.57
2018-12-20T18:32:43.278Z,19.07
2018-12-20T18:36:46.298Z,21.30
2018-12-20T18:40:49.277Z,25.60
2018-12-20T18:44:52.165Z,19.80
2018-12-20T18:48:55.042Z,22.47
2018-12-20T18:52:57.937Z,21.07
2018-12-20T18:57:00.823Z,27.57
2018-12-20T19:01:03.833Z,28.30
2018-12-20T19:05:07.332Z,26.27
2018-12-20T19:09:10.382Z,25.90
2018-12-20T19:13:13.674Z,32.27
2018-12-20T19:17:16.894Z,24.10
2018-12-20T19:21:19.954Z,24.53
2018-12-20T19:25:23.537Z,24.13
2018-12-20T19:29:26.517Z,27.27
2018-12-20T19:33:29.731Z,24.50
2018-12-20T19:37:32.969Z,25.33
2018-12-20T19:41:36.051Z,25.10
2018-12-20T19:45:45.974Z,22.30
2018-12-20T19:49:47.322Z,24.50
2018-12-20T19:53:50.328Z,21.50
2018-12-20T19:57:53.385Z,22.60
2018-12-20T20:02:04.321Z,27.03
2018-12-20T20:06:01.624Z,24.23
2018-12-20T20:10:05.352Z,21.50
2018-12-20T20:14:08.254Z,31.30
2018-12-20T20:18:11.253Z,25.33
2018-12-20T20:22:14.541Z,23.10
2018-12-20T20:26:17.653Z,22.13
2018-12-20T20:30:20.839Z,23.43
2018-12-20T20:34:23.729Z,30.27
2018-12-20T20:38:26.723Z,21.07
2018-12-20T20:42:29.674Z,24.10
2018-12-20T20:46:32.928Z,24.07
2018-12-20T20:50:36.009Z,20.73
2018-12-20T20:54:39.128Z,24.30
2018-12-20T20:58:42.024Z,18.00
2018-12-20T21:02:45.040Z,19.30
2018-12-20T21:06:48.320Z,18.23
2018-12-20T21:10:51.293Z,18.47
2018-12-20T21:14:54.623Z,17.50
2018-12-20T21:18:57.520Z,16.07
2018-12-20T21:23:00.494Z,15.47
2018-12-20T21:27:03.716Z,11.80
2018-12-20T21:31:06.934Z,13.50
2018-12-20T21:35:10.036Z,11.17
2018-12-20T21:39:13.354Z,9.60
2018-12-20T21:43:16.360Z,10.63
2018-12-20T21:47:19.570Z,12.37
2018-12-20T21:51:22.810Z,13.20
2018-12-20T21:55:25.728Z,14.73
2018-12-20T21:59:28.617Z,17.70
2018-12-20T22:03:31.632Z,14.37
2018-12-20T22:07:34.529Z,14.20
2018-12-20T22:11:37.524Z,15.40
2018-12-20T22:15:40.480Z,16.83
2018-12-20T22:19:43.538Z,20.90
2018-12-20T22:23:46.416Z,16.23
2018-12-20T22:27:49.594Z,18.27
2018-12-20T22:31:52.516Z,18.53
2018-12-20T22:35:55.723Z,21.00
2018-12-20T22:39:58.970Z,25.77
2018-12-20T22:44:02.110Z,18.17
2018-12-20T22:48:05.362Z,20.70
2018-12-20T22:52:08.578Z,17.43
2018-12-20T22:56:11.497Z,22.00
2018-12-20T23:00:14.525Z,23.80
2018-12-20T23:04:17.719Z,21.10
2018-12-20T23:08:20.649Z,17.90
2018-12-20T23:12:24.437Z,20.57
2018-12-20T23:16:27.589Z,25.83
2018-12-20T23:20:30.476Z,17.93
2018-12-20T23:24:33.350Z,18.80
2018-12-20T23:28:36.249Z,19.10
2018-12-20T23:32:39.448Z,16.83
2018-12-20T23:36:42.389Z,18.50
2018-12-20T23:40:45.357Z,17.70
2018-12-20T23:44:48.264Z,15.60
2018-12-20T23:48:51.463Z,13.97
2018-12-20T23:52:54.389Z,12.27
2018-12-20T23:56:57.933Z,13.90
